createdAt,value
2019-04-11T00:00:04.244Z,-922.01
2019-04-11T00:01:04.527Z,-926.21
2019-04-11T00:02:04.917Z,-918.02
2019-04-11T00:03:05.293Z,-921.72
2019-04-11T00:04:06.088Z,-919.25
2019-04-11T00:05:06.396Z,-921.69
2019-04-11T00:06:07.438Z,-921.11
2019-04-11T00:07:07.846Z,-915.78
2019-04-11T00:08:07.971Z,-918.04
2019-04-11T00:09:08.177Z,-921.11
2019-04-11T00:10:08.239Z,-923.86
2019-04-11T00:11:09.343Z,-920.99
2019-04-11T00:12:08.570Z,-920.09
2019-04-11T00:13:17.087Z,-923.55
2019-04-11T00:14:10.332Z,-919.31
2019-04-11T00:15:10.650Z,-918.78
2019-04-11T00:16:10.429Z,-919.04
2019-04-11T00:17:10.517Z,-923.77
2019-04-11T00:18:10.935Z,-919.48
2019-04-11T00:19:12.162Z,-918.56
2019-04-11T00:20:11.827Z,-923.25
2019-04-11T00:21:12.834Z,-922.53
2019-04-11T00:22:13.161Z,-926.98
2019-04-11T00:23:12.802Z,-914.40
2019-04-11T00:24:13.204Z,-919.31
2019-04-11T00:25:13.622Z,-920.49
2019-04-11T00:26:13.932Z,-925.17
2019-04-11T00:27:14.943Z,-920.14
2019-04-11T00:28:15.319Z,-919.64
2019-04-11T00:29:15.050Z,-924.43
2019-04-11T00:30:15.652Z,-919.41
2019-04-11T00:31:16.720Z,-919.08
2019-04-11T00:32:17.088Z,-924.28
2019-04-11T00:33:16.593Z,-922.66
2019-04-11T00:34:16.934Z,-923.51
2019-04-11T00:35:17.582Z,-922.61
2019-04-11T00:36:17.677Z,-922.38
2019-04-11T00:37:19.059Z,-921.80
2019-04-11T00:38:18.440Z,-925.54
2019-04-11T00:39:19.483Z,-922.70
2019-04-11T00:40:19.933Z,-922.93
2019-04-11T00:41:19.721Z,-922.15
2019-04-11T00:42:20.742Z,-924.42
2019-04-11T00:43:30.615Z,-924.66
2019-04-11T00:44:21.683Z,-923.68
2019-04-11T00:45:21.281Z,-923.42
2019-04-11T00:46:22.449Z,-914.25
2019-04-11T00:47:22.723Z,-924.99
2019-04-11T00:48:22.173Z,-918.89
2019-04-11T00:49:22.654Z,-920.79
2019-04-11T00:50:23.253Z,-926.96
2019-04-11T00:51:23.568Z,-921.90
2019-04-11T00:52:23.670Z,-920.00
2019-04-11T00:53:24.052Z,-917.77
2019-04-11T00:54:24.784Z,-918.68
2019-04-11T00:55:24.810Z,-923.25
2019-04-11T00:56:26.183Z,-917.19
2019-04-11T00:57:25.604Z,-921.04
2019-04-11T00:58:25.897Z,-925.90
2019-04-11T00:59:26.699Z,-921.06
2019-04-11T01:00:27.080Z,-924.89
2019-04-11T01:01:28.116Z,-924.91
2019-04-11T01:02:27.442Z,-920.77
2019-04-11T01:03:28.393Z,-923.50
2019-04-11T01:04:28.168Z,-924.84
2019-04-11T01:05:29.716Z,-918.18
2019-04-11T01:06:30.019Z,-919.78
2019-04-11T01:07:29.296Z,-923.94
2019-04-11T01:08:29.677Z,-919.74
2019-04-11T01:09:30.523Z,-918.94
2019-04-11T01:10:30.404Z,-920.75
2019-04-11T01:11:30.784Z,-922.77
2019-04-11T01:12:32.259Z,-927.36
2019-04-11T01:13:39.756Z,-924.46
2019-04-11T01:14:34.049Z,-924.24
2019-04-11T01:15:32.378Z,-923.48
2019-04-11T01:16:32.668Z,-920.50
2019-04-11T01:17:33.636Z,-921.58
2019-04-11T01:18:33.984Z,-925.93
2019-04-11T01:19:35.037Z,-919.53
2019-04-11T01:20:34.179Z,-920.69
2019-04-11T01:21:34.862Z,-919.17
2019-04-11T01:22:35.290Z,-922.67
2019-04-11T01:23:35.559Z,-917.76
2019-04-11T01:24:35.908Z,-920.07
2019-04-11T01:25:36.872Z,-919.39
2019-04-11T01:26:37.171Z,-920.42
2019-04-11T01:27:39.417Z,-922.45
2019-04-11T01:28:38.539Z,-920.38
2019-04-11T01:29:37.834Z,-916.82
2019-04-11T01:30:38.785Z,-921.76
2019-04-11T01:31:38.555Z,-924.27
2019-04-11T01:32:38.935Z,-921.94
2019-04-11T01:33:40.177Z,-921.13
2019-04-11T01:34:40.444Z,-926.19
2019-04-11T01:35:40.075Z,-924.43
2019-04-11T01:36:40.474Z,-918.58
2019-04-11T01:37:41.866Z,-925.40
2019-04-11T01:38:41.236Z,-922.65
2019-04-11T01:39:41.558Z,-918.50
2019-04-11T01:40:42.260Z,-922.24
2019-04-11T01:41:42.628Z,-922.02
2019-04-11T01:42:43.653Z,-920.39
2019-04-11T01:43:52.700Z,-921.95
2019-04-11T01:44:45.835Z,-920.54
2019-04-11T01:45:43.828Z,-917.96
2019-04-11T01:46:44.470Z,-926.24
2019-04-11T01:47:44.830Z,-920.41
2019-04-11T01:48:45.899Z,-918.79
2019-04-11T01:49:46.185Z,-922.42
2019-04-11T01:50:45.694Z,-915.33
2019-04-11T01:51:46.109Z,-912.84
2019-04-11T01:52:46.684Z,-906.55
2019-04-11T01:53:46.941Z,-901.12
2019-04-11T01:54:47.975Z,-897.50
2019-04-11T01:55:48.362Z,-912.48
2019-04-11T01:56:47.994Z,-920.20
2019-04-11T01:57:48.335Z,-916.42
2019-04-11T01:58:48.911Z,-918.56
2019-04-11T01:59:49.061Z,-918.29
2019-04-11T02:00:50.819Z,-910.30
2019-04-11T02:01:49.870Z,-909.51
2019-04-11T02:02:50.704Z,-916.01
2019-04-11T02:03:51.700Z,-919.83
2019-04-11T02:04:50.934Z,-914.65
2019-04-11T02:05:51.566Z,-919.41
2019-04-11T02:06:51.743Z,-925.80
2019-04-11T02:07:53.157Z,-922.81
2019-04-11T02:08:52.484Z,-924.31
2019-04-11T02:09:52.828Z,-926.27
2019-04-11T02:10:53.188Z,-921.60
2019-04-11T02:11:54.038Z,-923.25
2019-04-11T02:12:53.939Z,-921.12
2019-04-11T02:14:05.097Z,-921.25
2019-04-11T02:14:55.689Z,-919.98
2019-04-11T02:15:55.774Z,-919.98
2019-04-11T02:16:55.461Z,-926.94
2019-04-11T02:17:55.815Z,-922.94
2019-04-11T02:18:56.202Z,-918.98
2019-04-11T02:19:56.637Z,-925.01
2019-04-11T02:20:57.596Z,-921.18
2019-04-11T02:21:57.922Z,-918.70
2019-04-11T02:22:57.658Z,-924.58
2019-04-11T02:23:58.050Z,-924.35
2019-04-11T02:24:59.095Z,-923.52
2019-04-11T02:25:58.792Z,-921.05
2019-04-11T02:26:59.214Z,-922.51
2019-04-11T02:28:00.085Z,-922.85
2019-04-11T02:28:59.972Z,-912.09
2019-04-11T02:30:01.069Z,-917.02
2019-04-11T02:31:02.503Z,-926.09
2019-04-11T02:32:02.811Z,-924.03
2019-04-11T02:33:01.444Z,-924.33
2019-04-11T02:34:02.415Z,-925.22
2019-04-11T02:35:04.376Z,-930.92
2019-04-11T02:36:03.065Z,-928.70
2019-04-11T02:37:03.040Z,-923.19
2019-04-11T02:38:04.872Z,-930.46
2019-04-11T02:39:07.277Z,-925.15
2019-04-11T02:40:05.518Z,-928.37
2019-04-11T02:41:06.091Z,-930.03
2019-04-11T02:42:06.325Z,-930.16
2019-04-11T02:43:07.069Z,-927.23
2019-04-11T02:44:07.226Z,-924.97
2019-04-11T02:45:23.074Z,-924.07
2019-04-11T02:46:17.317Z,-935.62
2019-04-11T02:47:11.786Z,-929.54
2019-04-11T02:48:09.314Z,-931.08
2019-04-11T02:49:08.087Z,-928.09
2019-04-11T02:50:08.244Z,-929.63
2019-04-11T02:51:09.768Z,-926.76
2019-04-11T02:52:09.483Z,-926.28
2019-04-11T02:53:09.352Z,-923.44
2019-04-11T02:54:09.297Z,-929.24
2019-04-11T02:55:10.152Z,-930.47
2019-04-11T02:56:11.292Z,-930.42
2019-04-11T02:57:11.877Z,-926.64
2019-04-11T02:58:12.325Z,-929.02
2019-04-11T02:59:11.285Z,-930.87
2019-04-11T03:00:13.003Z,-926.57
2019-04-11T03:01:12.395Z,-927.19
2019-04-11T03:02:14.709Z,-924.50
2019-04-11T03:03:13.041Z,-925.23
2019-04-11T03:04:14.738Z,-924.44
2019-04-11T03:05:13.833Z,-916.21
2019-04-11T03:06:14.943Z,-924.97
2019-04-11T03:07:14.560Z,-924.93
2019-04-11T03:08:16.499Z,-928.18
2019-04-11T03:09:15.358Z,-927.44
2019-04-11T03:10:16.429Z,-929.94
2019-04-11T03:11:16.658Z,-927.97
2019-04-11T03:12:16.066Z,-925.77
2019-04-11T03:13:16.793Z,-919.43
2019-04-11T03:14:18.562Z,-922.34
2019-04-11T03:15:31.661Z,-922.89
2019-04-11T03:16:27.865Z,-924.04
2019-04-11T03:17:23.123Z,-925.36
2019-04-11T03:18:35.540Z,-922.59
2019-04-11T03:19:35.242Z,-929.30
2019-04-11T03:20:26.516Z,-923.46
2019-04-11T03:21:22.043Z,-929.19
2019-04-11T03:22:20.258Z,-933.16
2019-04-11T03:23:21.034Z,-922.00
2019-04-11T03:24:21.871Z,-929.70
2019-04-11T03:25:22.421Z,-926.81
2019-04-11T03:26:21.574Z,-926.13
2019-04-11T03:27:22.400Z,-935.39
2019-04-11T03:28:23.845Z,-923.39
2019-04-11T03:29:24.306Z,-925.32
2019-04-11T03:30:30.214Z,-926.83
2019-04-11T03:32:05.756Z,-920.71
2019-04-11T03:33:32.878Z,-919.73
2019-04-11T03:34:16.358Z,-920.71
2019-04-11T03:35:11.967Z,-916.77
2019-04-11T03:37:49.900Z,-925.14
2019-04-11T03:38:46.951Z,-923.05
2019-04-11T03:39:48.081Z,-917.67
2019-04-11T03:40:43.189Z,-914.39
2019-04-11T03:41:42.725Z,-916.15
2019-04-11T03:42:38.041Z,-921.71
2019-04-11T03:43:38.000Z,-923.14
2019-04-11T03:44:35.231Z,-927.29
2019-04-11T03:45:48.346Z,-925.87
2019-04-11T03:46:42.164Z,-923.66
2019-04-11T03:47:40.983Z,-925.73
2019-04-11T03:48:40.997Z,-931.87
2019-04-11T03:49:39.854Z,-921.88
2019-04-11T03:50:32.229Z,-927.03
2019-04-11T03:51:30.823Z,-926.68
2019-04-11T03:52:32.612Z,-920.34
2019-04-11T03:53:32.075Z,-921.72
2019-04-11T03:54:32.424Z,-928.65
2019-04-11T03:55:32.505Z,-921.47
2019-04-11T03:56:33.023Z,-915.74
2019-04-11T03:57:34.213Z,-918.17
2019-04-11T03:58:33.672Z,-921.03
2019-04-11T03:59:36.027Z,-918.05
2019-04-11T04:00:36.235Z,-919.82
2019-04-11T04:01:34.889Z,-920.99
2019-04-11T04:02:34.981Z,-924.79
2019-04-11T04:03:36.512Z,-913.37
2019-04-11T04:04:36.959Z,-919.90
2019-04-11T04:05:36.764Z,-921.16
2019-04-11T04:06:37.418Z,-920.51
2019-04-11T04:07:38.019Z,-919.97
2019-04-11T04:08:38.577Z,-918.44
2019-04-11T04:09:39.512Z,-921.89
2019-04-11T04:10:39.387Z,-920.58
2019-04-11T04:11:38.515Z,-920.72
2019-04-11T04:12:40.176Z,-910.95
2019-04-11T04:13:39.562Z,-911.60
2019-04-11T04:14:41.276Z,-919.24
2019-04-11T04:15:51.946Z,-909.97
2019-04-11T04:16:45.673Z,-923.00
2019-04-11T04:17:43.212Z,-923.74
2019-04-11T04:18:40.877Z,-920.27
2019-04-11T04:19:41.214Z,-910.63
2019-04-11T04:20:42.010Z,-914.51
2019-04-11T04:21:42.793Z,-914.36
2019-04-11T04:22:44.013Z,-918.22
2019-04-11T04:23:43.219Z,-910.65
2019-04-11T04:24:44.815Z,-917.81
2019-04-11T04:25:45.655Z,-915.62
2019-04-11T04:26:43.874Z,-910.79
2019-04-11T04:27:45.038Z,-913.81
2019-04-11T04:28:45.151Z,-910.27
2019-04-11T04:29:46.674Z,-900.96
2019-04-11T04:30:46.936Z,-897.41
2019-04-11T04:31:46.654Z,-908.33
2019-04-11T04:32:47.170Z,-899.21
2019-04-11T04:33:47.536Z,-905.71
2019-04-11T04:34:48.615Z,-900.62
2019-04-11T04:35:47.535Z,-894.94
2019-04-11T04:36:49.200Z,-899.43
2019-04-11T04:37:49.830Z,-905.41
2019-04-11T04:38:48.674Z,-906.49
2019-04-11T04:39:51.613Z,-899.85
2019-04-11T04:41:00.311Z,-904.24
2019-04-11T04:41:58.210Z,-913.09
2019-04-11T04:42:53.307Z,-901.06
2019-04-11T04:43:50.756Z,-905.13
2019-04-11T04:44:51.015Z,-908.33
2019-04-11T04:46:08.531Z,-913.12
2019-04-11T04:47:00.149Z,-909.34
2019-04-11T04:47:58.224Z,-905.67
2019-04-11T04:48:53.882Z,-906.21
2019-04-11T04:49:54.182Z,-910.05
2019-04-11T04:50:56.329Z,-916.12
2019-04-11T04:51:55.475Z,-912.71
2019-04-11T04:52:55.720Z,-914.69
2019-04-11T04:53:55.671Z,-917.11
2019-04-11T04:54:55.074Z,-914.12
2019-04-11T04:55:55.023Z,-901.98
2019-04-11T04:56:55.415Z,-906.45
2019-04-11T04:57:57.539Z,-913.69
2019-04-11T04:58:56.154Z,-915.22
2019-04-11T04:59:57.838Z,-971.71
2019-04-11T05:00:58.417Z,-962.49
2019-04-11T05:01:57.277Z,-970.26
2019-04-11T05:02:59.408Z,-965.41
2019-04-11T05:03:58.279Z,-967.71
2019-04-11T05:04:58.741Z,-969.84
2019-04-11T05:06:00.794Z,-973.19
2019-04-11T05:06:59.165Z,-968.23
2019-04-11T05:08:00.522Z,-961.92
2019-04-11T05:09:00.245Z,-964.65
2019-04-11T05:10:00.898Z,-972.34
2019-04-11T05:11:02.098Z,-973.19
2019-04-11T05:12:01.405Z,-970.93
2019-04-11T05:13:01.372Z,-972.07
2019-04-11T05:14:02.926Z,-970.89
2019-04-11T05:15:03.544Z,-978.09
2019-04-11T05:16:11.880Z,-970.68
2019-04-11T05:17:03.912Z,-969.99
2019-04-11T05:18:04.112Z,-966.70
2019-04-11T05:19:04.493Z,-971.62
2019-04-11T05:20:05.021Z,-967.16
2019-04-11T05:21:05.267Z,-972.26
2019-04-11T05:22:04.807Z,-975.97
2019-04-11T05:23:06.238Z,-968.67
2019-04-11T05:24:06.230Z,-965.37
2019-04-11T05:25:06.692Z,-969.89
2019-04-11T05:26:06.826Z,-968.88
2019-04-11T05:27:06.602Z,-968.39
2019-04-11T05:28:06.974Z,-966.07
2019-04-11T05:29:07.385Z,-970.83
2019-04-11T05:30:07.988Z,-968.31
2019-04-11T05:31:08.203Z,-969.85
2019-04-11T05:32:09.372Z,-970.49
2019-04-11T05:33:09.574Z,-974.15
2019-04-11T05:34:09.943Z,-975.75
2019-04-11T05:35:09.611Z,-969.39
2019-04-11T05:36:10.187Z,-972.64
2019-04-11T05:37:11.040Z,-971.76
2019-04-11T05:38:10.752Z,-971.69
2019-04-11T05:39:11.201Z,-971.15
2019-04-11T05:40:12.627Z,-979.10
2019-04-11T05:41:12.342Z,-970.42
2019-04-11T05:42:15.879Z,-974.58
2019-04-11T05:43:13.616Z,-968.90
2019-04-11T05:44:12.996Z,-973.71
2019-04-11T05:45:16.893Z,-967.77
2019-04-11T05:46:26.352Z,-969.09
2019-04-11T05:47:18.155Z,-973.06
2019-04-11T05:48:15.628Z,-976.59
2019-04-11T05:49:14.893Z,-977.15
2019-04-11T05:50:15.894Z,-975.63
2019-04-11T05:51:18.552Z,-973.88
2019-04-11T05:52:17.781Z,-975.48
2019-04-11T05:53:18.559Z,-970.82
2019-04-11T05:54:16.775Z,-956.56
2019-04-11T05:55:17.611Z,-971.03
2019-04-11T05:56:18.722Z,-969.67
2019-04-11T05:57:21.205Z,-966.39
2019-04-11T05:58:19.623Z,-968.86
2019-04-11T05:59:19.815Z,-968.50
2019-04-11T06:00:19.383Z,-967.17
2019-04-11T06:01:20.268Z,-973.54
2019-04-11T06:02:19.806Z,-971.37
2019-04-11T06:03:20.228Z,-966.51
2019-04-11T06:04:23.309Z,-967.54
2019-04-11T06:05:23.738Z,-967.92
2019-04-11T06:06:21.394Z,-966.62
2019-04-11T06:07:21.713Z,-970.32
2019-04-11T06:08:26.602Z,-963.83
2019-04-11T06:09:23.627Z,-968.39
2019-04-11T06:10:24.019Z,-963.11
2019-04-11T06:11:24.021Z,-966.37
2019-04-11T06:12:23.695Z,-966.56
2019-04-11T06:13:24.665Z,-966.82
2019-04-11T06:14:25.038Z,-966.58
2019-04-11T06:15:25.015Z,-960.53
2019-04-11T06:16:35.680Z,-969.14
2019-04-11T06:17:26.456Z,-970.92
2019-04-11T06:18:30.562Z,-963.97
2019-04-11T06:19:28.241Z,-971.76
2019-04-11T06:20:27.152Z,-970.29
2019-04-11T06:21:28.289Z,-969.90
2019-04-11T06:22:27.560Z,-972.76
2019-04-11T06:23:27.799Z,-968.21
2019-04-11T06:24:28.174Z,-967.11
2019-04-11T06:25:30.219Z,-973.41
2019-04-11T06:26:30.307Z,-969.53
2019-04-11T06:27:30.377Z,-966.61
2019-04-11T06:28:30.692Z,-969.29
2019-04-11T06:29:31.109Z,-963.63
2019-04-11T06:30:30.535Z,-966.36
2019-04-11T06:31:31.743Z,-973.99
2019-04-11T06:32:31.923Z,-972.12
2019-04-11T06:33:32.213Z,-969.13
2019-04-11T06:34:31.895Z,-968.08
2019-04-11T06:35:32.345Z,-966.91
2019-04-11T06:36:32.743Z,-979.85
2019-04-11T06:37:33.974Z,-979.88
2019-04-11T06:38:34.356Z,-979.15
2019-04-11T06:39:33.751Z,-973.18
2019-04-11T06:40:34.652Z,-969.91
2019-04-11T06:41:34.755Z,-982.37
2019-04-11T06:42:35.034Z,-974.29
2019-04-11T06:43:36.244Z,-970.18
2019-04-11T06:44:35.689Z,-977.03
2019-04-11T06:45:36.140Z,-975.21
2019-04-11T06:46:42.813Z,-978.04
2019-04-11T06:47:37.789Z,-979.46
2019-04-11T06:48:38.012Z,-973.69
2019-04-11T06:49:38.385Z,-977.01
2019-04-11T06:50:37.946Z,-975.11
2019-04-11T06:51:38.301Z,-974.10
2019-04-11T06:52:39.098Z,-917.47
2019-04-11T06:53:39.943Z,-973.30
2019-04-11T06:54:39.446Z,-971.52
2019-04-11T06:55:39.824Z,-957.50
2019-04-11T06:56:41.194Z,-965.25
2019-04-11T06:57:40.572Z,-965.33
2019-04-11T06:58:40.958Z,-978.07
2019-04-11T06:59:41.322Z,-975.31
2019-04-11T07:00:41.731Z,-973.53
2019-04-11T07:01:42.614Z,-977.87
2019-04-11T07:02:42.429Z,-978.13
2019-04-11T07:03:42.846Z,-978.79
2019-04-11T07:04:44.056Z,-982.57
2019-04-11T07:05:43.634Z,-978.00
2019-04-11T07:06:43.951Z,-984.81
2019-04-11T07:07:45.105Z,-977.52
2019-04-11T07:08:44.816Z,-980.38
2019-04-11T07:09:45.169Z,-974.56
2019-04-11T07:10:45.426Z,-970.95
2019-04-11T07:11:45.813Z,-981.79
2019-04-11T07:12:47.150Z,-965.71
2019-04-11T07:13:47.613Z,-975.05
2019-04-11T07:14:47.576Z,-980.11
2019-04-11T07:15:48.333Z,-981.31
2019-04-11T07:16:59.154Z,-977.72
2019-04-11T07:17:49.095Z,-978.99
2019-04-11T07:18:48.436Z,-985.16
2019-04-11T07:19:48.800Z,-987.09
2019-04-11T07:20:49.899Z,-984.89
2019-04-11T07:21:50.323Z,-981.84
2019-04-11T07:22:50.960Z,-984.55
2019-04-11T07:23:51.301Z,-980.56
2019-04-11T07:24:50.670Z,-980.25
2019-04-11T07:25:51.778Z,-966.05
2019-04-11T07:26:52.125Z,-964.50
2019-04-11T07:27:52.715Z,-908.73
2019-04-11T07:28:52.325Z,-918.80
2019-04-11T07:29:52.581Z,-909.10
2019-04-11T07:30:53.857Z,-919.59
2019-04-11T07:31:54.728Z,-917.24
2019-04-11T07:32:54.996Z,-918.07
2019-04-11T07:33:54.125Z,-923.07
2019-04-11T07:34:54.610Z,-926.09
2019-04-11T07:35:55.139Z,-923.57
2019-04-11T07:36:55.780Z,-919.14
2019-04-11T07:37:55.612Z,-926.25
2019-04-11T07:38:56.675Z,-921.73
2019-04-11T07:39:56.363Z,-903.70
2019-04-11T07:40:56.745Z,-918.43
2019-04-11T07:41:58.076Z,-920.67
2019-04-11T07:43:00.855Z,-923.63
2019-04-11T07:43:58.879Z,-922.63
2019-04-11T07:44:58.237Z,-922.43
2019-04-11T07:45:58.632Z,-921.90
2019-04-11T07:47:00.220Z,-922.19
2019-04-11T07:48:00.505Z,-918.84
2019-04-11T07:48:59.757Z,-923.15
2019-04-11T07:50:00.123Z,-921.35
2019-04-11T07:51:01.899Z,-930.75
2019-04-11T07:52:00.842Z,-928.42
2019-04-11T07:53:01.557Z,-927.45
2019-04-11T07:54:02.574Z,-928.79
2019-04-11T07:55:02.618Z,-922.27
2019-04-11T07:56:03.556Z,-916.23
2019-04-11T07:57:03.944Z,-916.45
2019-04-11T07:58:04.331Z,-913.26
2019-04-11T07:59:03.522Z,-910.51
2019-04-11T08:00:03.964Z,-916.31
2019-04-11T08:01:04.260Z,-929.69
2019-04-11T08:02:05.693Z,-932.19
2019-04-11T08:03:06.302Z,-918.15
2019-04-11T08:04:06.022Z,-917.01
2019-04-11T08:05:06.637Z,-920.35
2019-04-11T08:06:07.378Z,-935.77
2019-04-11T08:07:06.634Z,-939.11
2019-04-11T08:08:07.959Z,-914.13
2019-04-11T08:09:07.276Z,-930.07
2019-04-11T08:10:08.204Z,-928.84
2019-04-11T08:11:08.017Z,-926.06
2019-04-11T08:12:08.734Z,-931.14
2019-04-11T08:13:08.771Z,-920.35
2019-04-11T08:14:10.394Z,-922.61
2019-04-11T08:15:09.510Z,-925.47
2019-04-11T08:16:10.560Z,-924.57
2019-04-11T08:17:11.377Z,-920.31
2019-04-11T08:18:10.651Z,-924.85
2019-04-11T08:19:11.054Z,-840.12
2019-04-11T08:20:11.394Z,-916.62
2019-04-11T08:21:12.135Z,-921.13
2019-04-11T08:22:12.206Z,-918.90
2019-04-11T08:23:13.719Z,-917.40
2019-04-11T08:24:13.048Z,-919.89
2019-04-11T08:25:13.340Z,-915.16
2019-04-11T08:26:13.711Z,-923.75
2019-04-11T08:27:14.088Z,-925.93
2019-04-11T08:28:14.415Z,-921.94
2019-04-11T08:29:15.565Z,-927.64
2019-04-11T08:30:15.158Z,-926.48
2019-04-11T08:31:15.549Z,-931.82
2019-04-11T08:32:15.977Z,-926.13
2019-04-11T08:33:16.364Z,-930.06
2019-04-11T08:34:17.250Z,-923.19
2019-04-11T08:35:17.696Z,-935.98
2019-04-11T08:36:17.718Z,-927.75
2019-04-11T08:37:19.230Z,-918.75
2019-04-11T08:38:18.495Z,-927.41
2019-04-11T08:39:18.556Z,-935.60
2019-04-11T08:40:19.826Z,-945.26
2019-04-11T08:41:19.725Z,-931.57
2019-04-11T08:42:19.692Z,-938.20
2019-04-11T08:43:21.062Z,-937.74
2019-04-11T08:44:20.488Z,-933.65
2019-04-11T08:45:21.570Z,-939.53
2019-04-11T08:46:21.188Z,-935.09
2019-04-11T08:47:22.456Z,-941.56
2019-04-11T08:48:21.917Z,-929.60
2019-04-11T08:49:23.670Z,-943.42
2019-04-11T08:50:22.785Z,-932.04
2019-04-11T08:51:23.222Z,-938.95
2019-04-11T08:52:24.297Z,-942.97
2019-04-11T08:53:24.657Z,-939.04
2019-04-11T08:54:24.191Z,-929.34
2019-04-11T08:55:24.531Z,-907.41
2019-04-11T08:56:25.083Z,-913.08
2019-04-11T08:57:25.475Z,-926.32
2019-04-11T08:58:26.698Z,-919.29
2019-04-11T08:59:27.122Z,-935.46
2019-04-11T09:00:26.405Z,-919.98
2019-04-11T09:01:27.735Z,-923.19
2019-04-11T09:02:27.193Z,-919.73
2019-04-11T09:03:27.530Z,-908.01
2019-04-11T09:04:28.035Z,-922.44
2019-04-11T09:05:29.141Z,-919.38
2019-04-11T09:06:28.642Z,-934.40
2019-04-11T09:07:29.685Z,-917.28
2019-04-11T09:08:30.080Z,-945.47
2019-04-11T09:09:29.824Z,-938.47
2019-04-11T09:10:30.148Z,-930.38
2019-04-11T09:11:30.919Z,-938.57
2019-04-11T09:12:30.948Z,-934.61
2019-04-11T09:13:31.372Z,-932.51
2019-04-11T09:14:32.462Z,-947.94
2019-04-11T09:15:32.924Z,-953.32
2019-04-11T09:16:32.427Z,-929.76
2019-04-11T09:17:32.852Z,-947.94
2019-04-11T09:18:34.165Z,-924.60
2019-04-11T09:19:34.545Z,-984.03
2019-04-11T09:20:34.066Z,-930.73
2019-04-11T09:21:34.314Z,-923.50
2019-04-11T09:22:35.345Z,-928.32
2019-04-11T09:23:35.698Z,-919.11
2019-04-11T09:24:36.698Z,-914.29
2019-04-11T09:25:36.930Z,-918.96
2019-04-11T09:26:36.171Z,-910.67
2019-04-11T09:27:36.627Z,-903.05
2019-04-11T09:28:37.720Z,-916.52
2019-04-11T09:29:37.876Z,-927.74
2019-04-11T09:30:38.881Z,-928.22
2019-04-11T09:31:38.059Z,-922.35
2019-04-11T09:32:38.465Z,-926.36
2019-04-11T09:33:39.680Z,-940.39
2019-04-11T09:34:39.413Z,-934.70
2019-04-11T09:35:39.583Z,-934.69
2019-04-11T09:36:40.913Z,-928.84
2019-04-11T09:37:40.348Z,-934.82
2019-04-11T09:38:40.723Z,-922.73
2019-04-11T09:39:41.419Z,-920.69
2019-04-11T09:40:41.687Z,-920.86
2019-04-11T09:41:42.736Z,-925.65
2019-04-11T09:42:43.099Z,-942.51
2019-04-11T09:43:42.541Z,-932.34
2019-04-11T09:44:42.897Z,-936.89
2019-04-11T09:45:43.914Z,-930.70
2019-04-11T09:46:43.704Z,-936.05
2019-04-11T09:47:44.097Z,-930.20
2019-04-11T09:48:44.532Z,-924.08
2019-04-11T09:49:45.020Z,-924.25
2019-04-11T09:50:45.179Z,-920.03
2019-04-11T09:51:45.549Z,-926.01
2019-04-11T09:52:45.948Z,-927.97
2019-04-11T09:53:47.242Z,-923.75
2019-04-11T09:54:46.674Z,-914.69
2019-04-11T09:55:47.899Z,-911.26
2019-04-11T09:56:47.410Z,-916.98
2019-04-11T09:57:48.186Z,-915.96
2019-04-11T09:58:48.162Z,-928.21
2019-04-11T09:59:49.623Z,-916.08
2019-04-11T10:00:48.945Z,-915.99
2019-04-11T10:01:49.605Z,-920.35
2019-04-11T10:02:50.564Z,-917.46
2019-04-11T10:03:50.792Z,-895.24
2019-04-11T10:04:50.422Z,-913.53
2019-04-11T10:05:51.585Z,-906.34
2019-04-11T10:06:51.168Z,-923.60
2019-04-11T10:07:52.324Z,-904.05
2019-04-11T10:08:52.093Z,-899.75
2019-04-11T10:09:52.441Z,-891.92
2019-04-11T10:10:53.246Z,-894.31
2019-04-11T10:11:53.100Z,-900.93
2019-04-11T10:12:54.192Z,-919.19
2019-04-11T10:13:53.791Z,-918.78
2019-04-11T10:14:54.164Z,-910.97
2019-04-11T10:15:55.628Z,-921.28
2019-04-11T10:16:56.062Z,-921.10
2019-04-11T10:17:55.305Z,-918.28
2019-04-11T10:18:55.735Z,-918.32
2019-04-11T10:19:56.215Z,-918.65
2019-04-11T10:20:57.132Z,-919.55
2019-04-11T10:21:56.804Z,-898.49
2019-04-11T10:22:58.333Z,-911.40
2019-04-11T10:23:58.864Z,-911.59
2019-04-11T10:24:58.907Z,-925.65
2019-04-11T10:25:59.304Z,-924.95
2019-04-11T10:26:58.689Z,-916.35
2019-04-11T10:27:59.108Z,-914.94
2019-04-11T10:29:00.254Z,-903.15
2019-04-11T10:30:00.873Z,-900.52
2019-04-11T10:31:00.223Z,-900.25
2019-04-11T10:32:01.150Z,-899.89
2019-04-11T10:33:00.966Z,-914.83
2019-04-11T10:34:02.828Z,-909.12
2019-04-11T10:35:01.875Z,-905.81
2019-04-11T10:36:02.982Z,-916.28
2019-04-11T10:37:03.463Z,-907.18
2019-04-11T10:38:02.843Z,-909.97
2019-04-11T10:39:03.206Z,-912.17
2019-04-11T10:40:03.988Z,-904.23
2019-04-11T10:41:04.195Z,-914.58
2019-04-11T10:42:04.421Z,-913.35
2019-04-11T10:43:04.736Z,-917.95
2019-04-11T10:44:05.559Z,-925.99
2019-04-11T10:45:06.578Z,-920.16
2019-04-11T10:46:07.056Z,-920.20
2019-04-11T10:47:07.264Z,-921.42
2019-04-11T10:48:06.597Z,-919.14
2019-04-11T10:49:07.494Z,-908.08
2019-04-11T10:50:07.333Z,-905.15
2019-04-11T10:51:08.743Z,-909.91
2019-04-11T10:52:08.100Z,-916.10
2019-04-11T10:53:08.944Z,-916.26
2019-04-11T10:54:08.831Z,-916.17
2019-04-11T10:55:09.406Z,-911.74
2019-04-11T10:56:10.609Z,-910.78
2019-04-11T10:57:09.942Z,-916.41
2019-04-11T10:58:10.839Z,-913.25
2019-04-11T10:59:10.702Z,-905.58
2019-04-11T11:00:11.161Z,-908.18
2019-04-11T11:01:11.539Z,-909.49
2019-04-11T11:02:12.701Z,-902.25
2019-04-11T11:03:12.200Z,-902.84
2019-04-11T11:04:13.667Z,-890.54
2019-04-11T11:05:12.946Z,-884.63
2019-04-11T11:06:13.609Z,-910.61
2019-04-11T11:07:13.718Z,-897.20
2019-04-11T11:08:15.286Z,-898.58
2019-04-11T11:09:14.460Z,-893.76
2019-04-11T11:10:15.407Z,-894.50
2019-04-11T11:11:15.976Z,-898.87
2019-04-11T11:12:15.571Z,-902.67
2019-04-11T11:13:16.037Z,-897.42
2019-04-11T11:14:16.580Z,-864.70
2019-04-11T11:15:17.653Z,-883.06
2019-04-11T11:16:17.077Z,-902.19
2019-04-11T11:17:38.994Z,-910.51
2019-04-11T11:18:44.074Z,-904.25
2019-04-11T11:19:37.522Z,-904.94
2019-04-11T11:20:26.072Z,-913.36
2019-04-11T11:21:19.951Z,-913.77
2019-04-11T11:22:19.364Z,-910.04
2019-04-11T11:23:20.479Z,-920.52
2019-04-11T11:24:20.097Z,-909.93
2019-04-11T11:25:20.470Z,-917.65
2019-04-11T11:26:22.629Z,-912.71
2019-04-11T11:27:22.231Z,-898.25
2019-04-11T11:28:21.591Z,-901.75
2019-04-11T11:29:22.035Z,-905.76
2019-04-11T11:30:23.092Z,-904.35
2019-04-11T11:31:22.713Z,-904.78
2019-04-11T11:32:23.123Z,-900.98
2019-04-11T11:33:23.892Z,-888.27
2019-04-11T11:34:24.799Z,-885.99
2019-04-11T11:35:27.661Z,-896.67
2019-04-11T11:36:25.713Z,-886.82
2019-04-11T11:37:25.007Z,-894.95
2019-04-11T11:38:26.003Z,-885.73
2019-04-11T11:39:26.806Z,-889.36
2019-04-11T11:40:26.097Z,-906.38
2019-04-11T11:41:26.448Z,-905.34
2019-04-11T11:42:26.893Z,-905.91
2019-04-11T11:43:27.515Z,-910.14
2019-04-11T11:44:28.631Z,-898.55
2019-04-11T11:45:27.976Z,-898.55
2019-04-11T11:46:29.739Z,-893.14
2019-04-11T11:47:32.689Z,-910.53
2019-04-11T11:48:31.161Z,-906.98
2019-04-11T11:49:42.426Z,-905.85
2019-04-11T11:50:31.874Z,-897.38
2019-04-11T11:51:31.196Z,-898.48
2019-04-11T11:52:32.205Z,-900.18
2019-04-11T11:53:31.375Z,-897.28
2019-04-11T11:54:31.464Z,-891.49
2019-04-11T11:55:31.737Z,-895.47
2019-04-11T11:56:32.109Z,-906.25
2019-04-11T11:57:32.975Z,-895.75
2019-04-11T11:58:33.400Z,-892.37
2019-04-11T11:59:34.375Z,-896.55
2019-04-11T12:00:33.594Z,-888.64
2019-04-11T12:01:33.972Z,-896.74
2019-04-11T12:02:34.844Z,-894.21
2019-04-11T12:03:35.173Z,-898.92
2019-04-11T12:04:36.100Z,-892.60
2019-04-11T12:05:36.439Z,-901.35
2019-04-11T12:06:35.846Z,-895.00
2019-04-11T12:07:37.425Z,-890.69
2019-04-11T12:08:36.953Z,-895.42
2019-04-11T12:09:36.973Z,-894.57
2019-04-11T12:10:37.499Z,-886.00
2019-04-11T12:11:37.940Z,-896.89